Time;durP1;ratioP1;P1;durP2;ratioP2;P2;SDS_P1;SDS_P2;PMS_P1;PMS_P2;Temp;Humidity;BMP_temperature;BMP_pressure;BME280_temperature;BME280_humidity;BME280_pressure;Samples;Min_cycle;Max_cycle;Signal;HPM_P1;HPM_P2
2022/11/27 00:00:28;;;;;;;6.77;5.17;;;9.80;96.70;;;;;;934178;149;27436;-78
2022/11/27 00:02:55;;;;;;;9.27;5.40;;;9.80;96.70;;;;;;952765;146;27300;-78
2022/11/27 00:05:21;;;;;;;9.03;5.33;;;9.70;96.60;;;;;;935851;149;27480;-79
2022/11/27 00:07:48;;;;;;;7.10;5.17;;;9.80;96.70;;;;;;951773;146;27455;-79
2022/11/27 00:10:15;;;;;;;7.47;5.27;;;9.70;96.60;;;;;;937080;149;27282;-78
2022/11/27 00:12:41;;;;;;;5.47;4.47;;;9.70;96.50;;;;;;952630;146;27423;-78
2022/11/27 00:15:08;;;;;;;5.77;4.50;;;9.70;96.50;;;;;;952571;146;27409;-78
2022/11/27 00:17:34;;;;;;;7.30;4.63;;;9.70;96.40;;;;;;938820;149;27302;-79
2022/11/27 00:20:01;;;;;;;7.27;4.53;;;9.60;96.20;;;;;;948646;148;27547;-78
2022/11/27 00:22:28;;;;;;;6.10;4.50;;;9.60;96.20;;;;;;933013;149;28566;-78
2022/11/27 00:24:54;;;;;;;6.10;5.00;;;9.60;96.20;;;;;;930114;152;27320;-78
2022/11/27 00:27:21;;;;;;;6.57;4.33;;;9.60;96.10;;;;;;929842;152;27290;-79
2022/11/27 00:29:47;;;;;;;8.43;5.20;;;9.50;96.00;;;;;;929597;152;27407;-79
2022/11/27 00:32:14;;;;;;;6.00;4.83;;;9.50;95.90;;;;;;927739;152;27433;-78
2022/11/27 00:34:40;;;;;;;6.77;4.40;;;9.50;95.90;;;;;;929587;152;27988;-77
2022/11/27 00:37:07;;;;;;;5.47;4.23;;;9.50;95.90;;;;;;943239;150;27410;-78
2022/11/27 00:39:34;;;;;;;6.53;4.03;;;9.40;95.90;;;;;;942639;150;27286;-78
2022/11/27 00:42:00;;;;;;;5.27;4.27;;;9.40;95.90;;;;;;931448;152;27360;-78
2022/11/27 00:44:27;;;;;;;5.33;4.10;;;9.40;95.90;;;;;;940107;150;27348;-78
2022/11/27 00:46:53;;;;;;;6.43;4.37;;;9.40;96.00;;;;;;930072;152;27394;-79
2022/11/27 00:49:20;;;;;;;6.53;4.03;;;9.30;96.00;;;;;;941268;150;27259;-79
2022/11/27 00:51:47;;;;;;;6.53;4.60;;;9.30;96.00;;;;;;921902;153;27895;-78
2022/11/27 00:54:13;;;;;;;7.27;4.20;;;9.30;96.00;;;;;;933484;151;27412;-78
2022/11/27 00:56:40;;;;;;;6.53;4.73;;;9.20;96.10;;;;;;923986;153;27498;-79
2022/11/27 00:59:07;;;;;;;6.50;4.17;;;9.20;96.10;;;;;;938562;151;27372;-79
2022/11/27 01:01:33;;;;;;;7.67;4.20;;;9.20;96.10;;;;;;924090;153;27362;-79
2022/11/27 01:03:59;;;;;;;4.73;4.33;;;9.20;96.00;;;;;;924784;153;27411;-79
2022/11/27 01:06:26;;;;;;;7.30;4.70;;;9.10;96.00;;;;;;932178;149;27284;-78
2022/11/27 01:08:53;;;;;;;7.27;4.47;;;9.10;96.00;;;;;;938079;149;27360;-79
2022/11/27 01:11:24;;;;;;;8.23;4.63;;;9.00;96.00;;;;;;937687;148;27485;-77
2022/11/27 01:13:49;;;;;;;9.60;5.33;;;9.00;96.20;;;;;;923483;152;27352;-78
2022/11/27 01:16:15;;;;;;;7.27;5.07;;;8.90;96.20;;;;;;939965;148;27382;-79
2022/11/27 01:18:42;;;;;;;10.60;5.30;;;8.90;96.30;;;;;;938312;151;27372;-78
2022/11/27 01:21:09;;;;;;;6.47;5.30;;;8.90;96.40;;;;;;922638;152;27827;-78
2022/11/27 01:23:35;;;;;;;7.47;4.17;;;8.80;96.40;;;;;;935654;147;27422;-77
2022/11/27 01:26:02;;;;;;;8.60;5.70;;;8.80;96.50;;;;;;933015;147;27337;-78
2022/11/27 01:28:28;;;;;;;6.33;4.80;;;8.70;96.50;;;;;;927369;150;27395;-78
2022/11/27 01:30:55;;;;;;;6.97;5.20;;;8.70;96.40;;;;;;918246;150;27362;-77
2022/11/27 01:33:21;;;;;;;5.33;4.53;;;8.60;96.40;;;;;;918039;150;27868;-78
2022/11/27 01:35:54;;;;;;;6.63;5.10;;;8.50;96.30;;;;;;931918;148;27362;-78
2022/11/27 01:38:20;;;;;;;9.63;5.13;;;8.50;96.10;;;;;;917439;150;27351;-78
2022/11/27 01:40:47;;;;;;;10.33;5.30;;;8.40;96.10;;;;;;929657;150;27304;-78
2022/11/27 01:43:14;;;;;;;8.00;5.43;;;8.30;96.00;;;;;;932885;150;27356;-78
2022/11/27 01:45:40;;;;;;;7.83;5.07;;;8.20;96.10;;;;;;930719;150;27321;-79
2022/11/27 01:48:07;;;;;;;8.73;5.67;;;8.10;96.10;;;;;;931815;149;27477;-79
2022/11/27 01:50:33;;;;;;;9.07;5.80;;;8.00;96.30;;;;;;931458;149;27461;-79
2022/11/27 01:53:03;;;;;;;9.33;5.83;;;7.80;96.40;;;;;;917426;150;27357;-79
2022/11/27 01:55:32;;;;;;;9.47;6.80;;;7.70;96.60;;;;;;938774;146;27340;-78
2022/11/27 01:58:01;;;;;;;8.60;5.93;;;7.60;96.80;;;;;;929868;150;27367;-79
2022/11/27 02:00:28;;;;;;;9.97;6.67;;;7.50;96.90;;;;;;932245;149;27358;-79
2022/11/27 02:02:54;;;;;;;9.63;6.23;;;7.40;97.00;;;;;;930879;149;27324;-78
2022/11/27 02:05:21;;;;;;;6.30;5.70;;;7.30;97.20;;;;;;929185;150;27360;-79
2022/11/27 02:07:48;;;;;;;7.13;5.63;;;7.20;97.40;;;;;;932860;150;27347;-79
2022/11/27 02:10:14;;;;;;;10.03;6.27;;;7.20;97.60;;;;;;930106;150;27426;-79
2022/11/27 02:12:47;;;;;;;8.27;6.73;;;7.10;97.70;;;;;;929458;150;27952;-78
2022/11/27 02:15:16;;;;;;;10.13;6.33;;;7.00;97.90;;;;;;942086;147;27408;-78
2022/11/27 02:17:52;;;;;;;7.47;5.70;;;6.90;98.00;;;;;;928277;150;27371;-79
2022/11/27 02:20:33;;;;;;;7.40;5.87;;;6.80;98.20;;;;;;930714;149;28092;-78
2022/11/27 02:23:11;;;;;;;8.10;5.03;;;6.70;98.30;;;;;;928596;150;27393;-77
2022/11/27 02:25:56;;;;;;;7.53;5.70;;;6.60;98.40;;;;;;937833;146;27331;-77
2022/11/27 02:28:31;;;;;;;9.20;5.57;;;6.60;98.50;;;;;;923394;149;27378;-78
2022/11/27 02:30:58;;;;;;;7.60;5.60;;;6.50;98.50;;;;;;936510;149;27367;-77
2022/11/27 02:33:24;;;;;;;9.73;5.33;;;6.40;98.50;;;;;;928953;149;27477;-77
2022/11/27 02:35:54;;;;;;;9.60;5.83;;;6.30;98.50;;;;;;938424;149;27383;-78
2022/11/27 02:38:23;;;;;;;7.20;5.33;;;6.20;98.50;;;;;;935877;149;27335;-78
2022/11/27 02:40:55;;;;;;;7.27;5.50;;;6.20;98.60;;;;;;935907;149;27543;-79
2022/11/27 02:43:22;;;;;;;6.17;5.27;;;6.10;98.60;;;;;;936538;149;27385;-78
2022/11/27 02:45:48;;;;;;;8.07;5.17;;;6.00;98.70;;;;;;922908;149;27368;-78
2022/11/27 02:48:15;;;;;;;5.80;5.10;;;5.90;98.70;;;;;;937979;147;27289;-78
2022/11/27 02:50:41;;;;;;;7.63;5.13;;;5.90;98.80;;;;;;940016;146;27340;-79
2022/11/27 02:53:08;;;;;;;6.57;4.97;;;5.80;99.00;;;;;;937776;149;27679;-79
2022/11/27 02:55:35;;;;;;;7.27;5.43;;;5.80;99.50;;;;;;937869;149;27355;-78
2022/11/27 02:58:01;;;;;;;8.30;5.70;;;5.70;99.20;;;;;;940245;147;27302;-78
2022/11/27 03:00:28;;;;;;;9.17;4.90;;;5.60;99.40;;;;;;933911;149;27322;-79
2022/11/27 03:02:55;;;;;;;8.53;5.43;;;5.60;99.50;;;;;;937195;149;27386;-78
2022/11/27 03:05:21;;;;;;;8.13;5.53;;;5.50;99.60;;;;;;936168;149;27347;-79
2022/11/27 03:07:48;;;;;;;6.30;4.67;;;5.50;99.70;;;;;;935113;149;27329;-79
2022/11/27 03:10:23;;;;;;;5.77;5.17;;;5.50;99.90;;;;;;935099;149;27471;-78
2022/11/27 03:12:50;;;;;;;11.43;6.20;;;5.40;99.90;;;;;;936554;149;27468;-77
2022/11/27 03:15:16;;;;;;;7.30;5.10;;;5.30;99.90;;;;;;936492;149;27318;-78
2022/11/27 03:17:55;;;;;;;10.83;6.40;;;5.30;99.90;;;;;;938166;146;27658;-78
2022/11/27 03:20:31;;;;;;;8.97;6.00;;;5.20;99.90;;;;;;937493;149;27355;-78
2022/11/27 03:22:57;;;;;;;8.27;6.07;;;5.20;99.90;;;;;;934971;149;27387;-78
2022/11/27 03:25:24;;;;;;;8.30;6.70;;;5.20;99.90;;;;;;931206;149;27996;-78
2022/11/27 03:27:53;;;;;;;8.83;6.10;;;5.20;99.90;;;;;;930133;152;27356;-78
2022/11/27 03:30:20;;;;;;;8.87;6.60;;;5.20;99.90;;;;;;930387;152;27385;-78
2022/11/27 03:32:47;;;;;;;7.43;5.57;;;5.20;99.90;;;;;;923966;153;27358;-78
2022/11/27 03:35:13;;;;;;;9.80;6.63;;;5.20;99.90;;;;;;923955;153;27445;-79
2022/11/27 03:37:40;;;;;;;9.67;6.40;;;5.20;99.90;;;;;;937111;150;27458;-77
2022/11/27 03:40:07;;;;;;;9.77;6.27;;;5.20;99.90;;;;;;941586;150;27320;-78
2022/11/27 03:42:51;;;;;;;8.40;6.90;;;5.20;99.90;;;;;;936587;151;27448;-78
2022/11/27 03:45:36;;;;;;;10.73;6.27;;;5.20;99.90;;;;;;924956;150;27459;-78
2022/11/27 03:48:02;;;;;;;9.47;6.40;;;5.30;99.90;;;;;;942305;150;27434;-78
2022/11/27 03:50:34;;;;;;;8.70;6.57;;;5.20;99.90;;;;;;937896;150;27450;-78
2022/11/27 03:53:16;;;;;;;9.90;6.60;;;5.20;99.90;;;;;;939954;151;27416;-78
2022/11/27 03:55:54;;;;;;;8.23;6.83;;;5.20;99.90;;;;;;938369;151;27354;-78
2022/11/27 03:58:33;;;;;;;12.37;7.17;;;5.20;99.90;;;;;;938813;151;27322;-78
2022/11/27 04:00:59;;;;;;;9.70;7.00;;;5.20;99.90;;;;;;938055;150;27369;-78
2022/11/27 04:03:26;;;;;;;7.60;6.30;;;5.20;99.90;;;;;;937651;151;27438;-77
2022/11/27 04:05:52;;;;;;;9.33;6.67;;;5.20;99.90;;;;;;938797;151;27421;-77
2022/11/27 04:08:19;;;;;;;8.50;5.93;;;5.10;99.90;;;;;;938770;150;27395;-78
2022/11/27 04:10:46;;;;;;;7.47;6.70;;;5.10;99.90;;;;;;938862;151;27886;-78
2022/11/27 04:13:12;;;;;;;8.07;6.80;;;5.00;99.90;;;;;;937737;151;27441;-77
2022/11/27 04:15:39;;;;;;;8.07;6.87;;;5.00;99.90;;;;;;938508;151;27359;-78
2022/11/27 04:18:05;;;;;;;9.70;7.20;;;4.90;99.90;;;;;;939143;151;27454;-77
2022/11/27 04:20:32;;;;;;;8.90;6.97;;;4.90;99.90;;;;;;939034;151;27306;-77
2022/11/27 04:22:58;;;;;;;10.57;7.37;;;4.90;99.90;;;;;;939526;151;27452;-77
2022/11/27 04:25:25;;;;;;;9.00;7.37;;;4.90;99.90;;;;;;936317;150;27438;-77
2022/11/27 04:27:52;;;;;;;7.80;6.10;;;4.80;99.90;;;;;;934652;149;27374;-77
2022/11/27 04:30:18;;;;;;;9.27;7.50;;;4.80;99.90;;;;;;933627;149;27651;-77
2022/11/27 04:32:45;;;;;;;7.90;7.00;;;4.80;99.90;;;;;;933654;149;27821;-77
2022/11/27 04:35:11;;;;;;;11.90;7.37;;;4.80;99.90;;;;;;934354;149;27391;-78
2022/11/27 04:37:38;;;;;;;10.27;6.37;;;4.80;99.90;;;;;;933763;149;27968;-77
2022/11/27 04:40:05;;;;;;;9.80;7.10;;;4.80;99.90;;;;;;934867;149;27351;-77
2022/11/27 04:42:31;;;;;;;9.50;7.17;;;4.80;99.90;;;;;;931617;149;27314;-77
2022/11/27 04:44:58;;;;;;;12.30;8.33;;;4.80;99.90;;;;;;935553;149;27768;-78
2022/11/27 04:47:25;;;;;;;11.37;8.30;;;4.80;99.90;;;;;;931718;149;27414;-78
2022/11/27 04:49:51;;;;;;;9.87;7.70;;;4.70;99.90;;;;;;934187;149;27463;-77
2022/11/27 04:52:18;;;;;;;9.73;7.97;;;4.70;99.90;;;;;;933373;149;27354;-77
2022/11/27 04:54:44;;;;;;;9.80;7.17;;;4.70;99.90;;;;;;934969;149;27477;-77
2022/11/27 04:57:11;;;;;;;10.47;6.97;;;4.70;99.90;;;;;;934804;149;27421;-78
2022/11/27 04:59:38;;;;;;;10.70;7.73;;;4.70;99.90;;;;;;933108;149;27342;-78
2022/11/27 05:02:04;;;;;;;8.57;6.93;;;4.70;99.90;;;;;;931927;149;27400;-78
2022/11/27 05:04:31;;;;;;;8.67;7.53;;;4.70;99.90;;;;;;934861;149;27463;-77
2022/11/27 05:06:57;;;;;;;10.57;7.10;;;4.60;99.90;;;;;;935422;151;27382;-77
2022/11/27 05:09:24;;;;;;;8.80;7.37;;;4.60;99.90;;;;;;932757;151;27477;-77
2022/11/27 05:11:50;;;;;;;8.47;7.30;;;4.60;99.90;;;;;;934347;149;27466;-77
2022/11/27 05:14:18;;;;;;;9.93;7.90;;;4.60;99.90;;;;;;934280;149;27336;-78
2022/11/27 05:16:44;;;;;;;9.90;7.80;;;4.50;99.90;;;;;;920452;150;27912;-77
2022/11/27 05:19:10;;;;;;;10.33;7.83;;;4.50;99.90;;;;;;926361;150;27319;-77
2022/11/27 05:21:37;;;;;;;9.77;7.70;;;4.50;99.90;;;;;;918826;150;27352;-77
2022/11/27 05:24:03;;;;;;;11.40;9.07;;;4.50;99.90;;;;;;934191;147;27394;-77
2022/11/27 05:26:30;;;;;;;9.20;7.33;;;4.50;99.90;;;;;;921508;150;27415;-77
2022/11/27 05:28:56;;;;;;;16.03;7.40;;;4.50;99.90;;;;;;921350;152;27397;-77
2022/11/27 05:31:23;;;;;;;12.53;7.80;;;4.50;99.90;;;;;;932532;148;27337;-77
2022/11/27 05:33:50;;;;;;;11.63;7.60;;;4.50;99.90;;;;;;934001;147;27306;-77
2022/11/27 05:36:16;;;;;;;8.50;7.60;;;4.40;99.90;;;;;;933395;147;27372;-77
2022/11/27 05:38:43;;;;;;;8.53;7.63;;;4.40;99.90;;;;;;931396;147;27317;-77
2022/11/27 05:41:09;;;;;;;9.73;7.40;;;4.40;99.90;;;;;;917558;150;27470;-77
2022/11/27 05:43:36;;;;;;;8.23;6.73;;;4.40;99.90;;;;;;916187;150;27374;-77
2022/11/27 05:46:06;;;;;;;8.47;7.23;;;4.40;99.90;;;;;;917707;152;27919;-77
2022/11/27 05:48:32;;;;;;;11.10;7.47;;;4.40;99.90;;;;;;937599;146;27310;-78
2022/11/27 05:50:59;;;;;;;7.90;6.40;;;4.40;99.90;;;;;;932089;150;27292;-77
2022/11/27 05:53:25;;;;;;;8.03;6.83;;;4.30;99.90;;;;;;932927;150;27313;-77
2022/11/27 05:55:52;;;;;;;10.83;7.20;;;4.30;99.90;;;;;;918361;150;27368;-77
2022/11/27 05:58:18;;;;;;;8.00;6.57;;;4.30;99.90;;;;;;931964;150;28594;-77
2022/11/27 06:00:45;;;;;;;9.33;6.83;;;4.30;99.90;;;;;;918326;150;27336;-77
2022/11/27 06:03:12;;;;;;;7.43;6.23;;;4.30;99.90;;;;;;918135;150;27795;-77
2022/11/27 06:05:38;;;;;;;8.57;7.07;;;4.20;99.90;;;;;;916878;150;27404;-77
2022/11/27 06:08:05;;;;;;;8.37;6.83;;;4.30;99.90;;;;;;925131;150;27499;-77
2022/11/27 06:10:31;;;;;;;8.87;6.93;;;4.20;99.90;;;;;;917784;150;27480;-77
2022/11/27 06:12:58;;;;;;;7.47;6.57;;;4.20;99.90;;;;;;919359;150;27444;-77
2022/11/27 06:15:25;;;;;;;8.20;7.03;;;4.20;99.90;;;;;;918080;150;27296;-77
2022/11/27 06:17:51;;;;;;;8.80;6.87;;;4.20;99.90;;;;;;932728;147;27392;-77
2022/11/27 06:20:19;;;;;;;8.40;7.50;;;4.20;99.90;;;;;;919944;150;27390;-77
2022/11/27 06:22:44;;;;;;;11.20;7.13;;;4.20;99.90;;;;;;917033;152;27389;-77
2022/11/27 06:25:11;;;;;;;8.83;6.97;;;4.20;99.90;;;;;;931385;150;27467;-77
2022/11/27 06:27:37;;;;;;;8.20;6.53;;;4.20;99.90;;;;;;926516;152;27392;-77
2022/11/27 06:30:04;;;;;;;8.77;6.77;;;4.20;99.90;;;;;;926705;153;27478;-77
2022/11/27 06:32:31;;;;;;;7.93;7.07;;;4.20;99.90;;;;;;925489;152;27369;-78
2022/11/27 06:34:57;;;;;;;9.20;6.83;;;4.20;99.90;;;;;;936211;149;27353;-77
2022/11/27 06:37:24;;;;;;;8.77;7.10;;;4.20;99.90;;;;;;938436;151;28516;-77
2022/11/27 06:39:50;;;;;;;8.60;7.03;;;4.30;99.90;;;;;;926151;153;27450;-77
2022/11/27 06:42:17;;;;;;;8.87;6.70;;;4.30;99.90;;;;;;924919;152;27357;-77
2022/11/27 06:44:44;;;;;;;7.43;6.40;;;4.30;99.90;;;;;;936507;148;27315;-78
2022/11/27 06:47:10;;;;;;;8.53;6.93;;;4.40;99.90;;;;;;922699;153;28073;-77
2022/11/27 06:49:37;;;;;;;8.83;7.47;;;4.40;99.90;;;;;;924045;154;27496;-77
2022/11/27 06:52:03;;;;;;;8.77;6.93;;;4.50;99.90;;;;;;935372;151;27261;-77
2022/11/27 06:54:30;;;;;;;6.90;5.90;;;4.50;99.90;;;;;;917646;154;27368;-77
2022/11/27 06:56:57;;;;;;;8.70;6.70;;;4.50;99.90;;;;;;926315;153;27333;-77
2022/11/27 06:59:23;;;;;;;9.40;7.03;;;4.60;99.90;;;;;;934924;151;27369;-77
2022/11/27 07:01:50;;;;;;;8.77;6.60;;;4.60;99.90;;;;;;939679;151;27345;-77
2022/11/27 07:04:16;;;;;;;9.63;6.80;;;4.60;99.90;;;;;;925290;153;27337;-77
2022/11/27 07:06:43;;;;;;;8.90;6.87;;;4.70;99.90;;;;;;930317;152;27396;-77
2022/11/27 07:09:09;;;;;;;7.23;6.10;;;4.70;99.90;;;;;;930114;152;27377;-78
2022/11/27 07:11:36;;;;;;;9.90;7.20;;;4.70;99.90;;;;;;925859;153;27416;-78
2022/11/27 07:14:03;;;;;;;8.17;6.50;;;4.70;99.90;;;;;;927381;153;27383;-77
2022/11/27 07:16:29;;;;;;;8.43;6.43;;;4.80;99.90;;;;;;930029;152;27402;-77
2022/11/27 07:18:56;;;;;;;9.27;6.93;;;4.80;99.90;;;;;;929245;152;27330;-77
2022/11/27 07:21:22;;;;;;;8.23;6.80;;;4.80;99.90;;;;;;919036;154;27377;-78
2022/11/27 07:23:49;;;;;;;7.33;6.63;;;4.90;99.90;;;;;;924485;151;27296;-77
2022/11/27 07:26:16;;;;;;;7.67;6.83;;;4.90;99.90;;;;;;926932;154;27897;-77
2022/11/27 07:28:45;;;;;;;7.40;6.60;;;5.00;99.90;;;;;;951961;148;27505;-77
2022/11/27 07:31:12;;;;;;;8.37;6.40;;;5.00;99.90;;;;;;957221;145;27336;-77
2022/11/27 07:33:38;;;;;;;8.63;7.03;;;5.10;99.90;;;;;;958125;145;27291;-77
2022/11/27 07:36:10;;;;;;;9.17;6.97;;;5.10;99.90;;;;;;957151;145;27259;-78
2022/11/27 07:38:37;;;;;;;8.30;6.63;;;5.20;99.90;;;;;;955053;145;27364;-77
2022/11/27 07:41:04;;;;;;;7.97;7.17;;;5.30;99.90;;;;;;942260;149;27305;-77
2022/11/27 07:43:30;;;;;;;10.87;7.23;;;5.30;99.90;;;;;;954521;145;27781;-77
2022/11/27 07:45:57;;;;;;;8.37;7.20;;;5.40;99.90;;;;;;942514;148;27362;-78
2022/11/27 07:48:23;;;;;;;9.50;7.27;;;5.40;99.90;;;;;;950179;149;27337;-78
2022/11/27 07:50:50;;;;;;;7.37;6.67;;;5.50;99.90;;;;;;949584;149;27371;-77
2022/11/27 07:53:17;;;;;;;7.77;6.77;;;5.60;99.90;;;;;;956785;145;27304;-77
2022/11/27 07:55:43;;;;;;;8.27;6.63;;;5.70;99.90;;;;;;955762;145;27284;-77
2022/11/27 07:58:10;;;;;;;8.00;7.03;;;5.80;99.90;;;;;;938768;148;27371;-77
2022/11/27 08:00:36;;;;;;;8.00;7.20;;;6.00;99.90;;;;;;954909;146;27357;-78
2022/11/27 08:03:03;;;;;;;10.13;7.33;;;6.20;99.90;;;;;;955966;146;27457;-78
2022/11/27 08:05:29;;;;;;;7.83;7.00;;;6.50;99.90;;;;;;935600;149;27399;-77
2022/11/27 08:07:56;;;;;;;8.87;6.87;;;6.80;99.90;;;;;;955329;148;27305;-77
2022/11/27 08:10:23;;;;;;;8.87;7.27;;;7.20;99.90;;;;;;940605;148;27325;-76
2022/11/27 08:12:49;;;;;;;6.77;6.07;;;7.50;99.90;;;;;;940212;148;27350;-77
2022/11/27 08:15:16;;;;;;;7.17;6.47;;;7.80;99.90;;;;;;947656;148;27340;-78
2022/11/27 08:17:43;;;;;;;7.20;6.50;;;8.00;99.90;;;;;;950615;148;27362;-78
2022/11/27 08:20:09;;;;;;;9.00;6.83;;;8.10;99.90;;;;;;948964;148;27364;-78
2022/11/27 08:22:36;;;;;;;7.37;6.60;;;8.20;99.90;;;;;;944938;148;27696;-78
2022/11/27 08:25:02;;;;;;;7.50;6.50;;;8.20;99.90;;;;;;952853;148;27305;-77
2022/11/27 08:27:29;;;;;;;8.50;6.77;;;8.20;99.90;;;;;;940077;148;27435;-77
2022/11/27 08:29:55;;;;;;;6.73;6.13;;;8.20;99.90;;;;;;943932;148;27364;-78
2022/11/27 08:32:22;;;;;;;8.40;6.70;;;8.20;99.90;;;;;;941809;148;27392;-78
2022/11/27 08:34:49;;;;;;;7.03;6.33;;;8.30;99.90;;;;;;937090;149;27306;-77
2022/11/27 08:37:15;;;;;;;8.50;6.50;;;8.30;99.90;;;;;;948061;149;27284;-78
2022/11/27 08:39:42;;;;;;;7.70;6.67;;;8.30;99.90;;;;;;950331;149;27399;-78
2022/11/27 08:42:08;;;;;;;7.07;6.33;;;8.30;99.90;;;;;;958914;147;27314;-78
2022/11/27 08:44:35;;;;;;;6.73;6.03;;;8.20;99.90;;;;;;940652;148;27454;-78
2022/11/27 08:47:02;;;;;;;7.27;6.17;;;8.20;99.70;;;;;;940111;148;27300;-77
2022/11/27 08:49:28;;;;;;;7.90;6.53;;;8.10;99.60;;;;;;940249;148;27426;-77
2022/11/27 08:51:55;;;;;;;9.87;6.60;;;8.10;99.70;;;;;;956155;146;27819;-78
2022/11/27 08:54:21;;;;;;;7.67;6.30;;;8.00;99.80;;;;;;940782;148;27329;-78
2022/11/27 08:56:48;;;;;;;8.57;6.57;;;7.90;99.90;;;;;;956945;145;27925;-77
2022/11/27 08:59:14;;;;;;;7.40;6.43;;;7.90;99.90;;;;;;956153;145;27292;-77
2022/11/27 09:01:41;;;;;;;6.47;5.87;;;7.90;99.90;;;;;;939525;148;27331;-78
2022/11/27 09:04:08;;;;;;;8.37;6.07;;;7.80;99.90;;;;;;940071;148;27356;-78
2022/11/27 09:06:35;;;;;;;8.63;6.30;;;7.90;99.90;;;;;;936484;149;27416;-78
2022/11/27 09:09:01;;;;;;;7.77;6.10;;;7.90;99.90;;;;;;943445;148;27404;-77
2022/11/27 09:11:27;;;;;;;6.73;6.03;;;7.90;99.90;;;;;;957885;145;27348;-78
2022/11/27 09:13:54;;;;;;;7.37;6.57;;;8.00;99.90;;;;;;948666;148;27332;-78
2022/11/27 09:16:21;;;;;;;6.67;6.07;;;8.10;99.90;;;;;;958019;148;27394;-78
2022/11/27 09:18:47;;;;;;;6.50;5.90;;;8.10;99.90;;;;;;939823;148;27360;-78
2022/11/27 09:21:14;;;;;;;8.00;6.43;;;8.30;99.90;;;;;;935988;149;27352;-78
2022/11/27 09:23:40;;;;;;;7.60;6.80;;;8.30;99.90;;;;;;954388;145;27360;-77
2022/11/27 09:26:13;;;;;;;8.67;7.00;;;8.40;99.90;;;;;;940026;148;27303;-78
2022/11/27 09:28:39;;;;;;;7.40;6.40;;;8.50;99.90;;;;;;934085;148;27382;-78
2022/11/27 09:31:06;;;;;;;7.03;6.17;;;8.60;99.90;;;;;;932213;147;27419;-79
2022/11/27 09:33:32;;;;;;;7.77;5.80;;;8.70;99.90;;;;;;918040;150;27355;-77
2022/11/27 09:35:59;;;;;;;6.27;5.67;;;8.80;99.90;;;;;;921404;150;27511;-77
2022/11/27 09:38:25;;;;;;;6.80;6.07;;;9.00;99.90;;;;;;916706;150;27303;-78
2022/11/27 09:40:52;;;;;;;7.37;6.20;;;9.10;99.90;;;;;;916791;152;27322;-77
2022/11/27 09:43:19;;;;;;;7.80;5.63;;;9.20;99.90;;;;;;926793;150;27418;-78
2022/11/27 09:45:45;;;;;;;7.87;6.00;;;9.30;99.90;;;;;;931011;147;27923;-79
2022/11/27 09:48:14;;;;;;;5.90;5.30;;;9.40;99.90;;;;;;919009;150;27357;-77
2022/11/27 09:50:49;;;;;;;5.70;5.20;;;9.40;99.90;;;;;;917031;150;27378;-79
2022/11/27 09:53:26;;;;;;;6.37;5.73;;;9.50;99.90;;;;;;931564;149;27429;-78
2022/11/27 09:55:52;;;;;;;7.57;5.07;;;9.60;99.70;;;;;;931554;150;27873;-78
2022/11/27 09:58:34;;;;;;;6.50;5.83;;;9.60;99.00;;;;;;933951;149;27376;-78
2022/11/27 10:01:00;;;;;;;7.17;4.93;;;9.60;98.50;;;;;;933191;149;27380;-79
2022/11/27 10:03:27;;;;;;;6.00;5.40;;;9.70;98.30;;;;;;932478;149;27357;-78
2022/11/27 10:06:05;;;;;;;5.83;5.23;;;9.60;98.00;;;;;;920220;150;27424;-78
2022/11/27 10:08:53;;;;;;;6.57;4.63;;;9.60;97.90;;;;;;933707;147;28766;-80
2022/11/27 10:11:37;;;;;;;5.90;5.30;;;9.60;97.80;;;;;;916706;151;27481;-81
2022/11/27 10:14:38;;;;;;;6.13;5.53;;;9.60;97.90;;;;;;939901;148;27461;-79
2022/11/27 10:17:14;;;;;;;6.13;5.53;;;9.60;97.90;;;;;;938349;148;27354;-79
2022/11/27 10:19:58;;;;;;;9.17;5.90;;;9.70;98.00;;;;;;941548;148;28507;-79
2022/11/27 10:22:31;;;;;;;6.37;5.60;;;9.70;98.30;;;;;;937764;148;27339;-79
2022/11/27 10:25:19;;;;;;;7.20;5.53;;;9.70;98.70;;;;;;937453;149;27332;-79
2022/11/27 10:27:51;;;;;;;6.53;5.43;;;9.80;98.80;;;;;;937592;148;27348;-79
2022/11/27 10:30:18;;;;;;;5.50;4.87;;;9.80;98.70;;;;;;935254;148;27442;-79
2022/11/27 10:32:44;;;;;;;5.53;4.87;;;9.90;98.30;;;;;;935402;151;27501;-78
2022/11/27 10:35:16;;;;;;;6.07;5.13;;;10.00;98.10;;;;;;934044;151;27351;-79
2022/11/27 10:37:43;;;;;;;6.07;5.33;;;10.00;98.00;;;;;;935484;151;27488;-79
2022/11/27 10:40:10;;;;;;;6.00;5.13;;;10.10;98.00;;;;;;934628;151;27468;-79
2022/11/27 10:42:36;;;;;;;8.17;4.97;;;10.20;98.00;;;;;;936615;151;27479;-79
2022/11/27 10:45:06;;;;;;;6.40;4.97;;;10.20;97.80;;;;;;933949;151;27425;-78
2022/11/27 10:47:32;;;;;;;5.93;4.67;;;10.30;97.40;;;;;;935398;151;27299;-79
2022/11/27 10:49:59;;;;;;;5.63;4.40;;;10.40;97.20;;;;;;935342;151;27407;-79
2022/11/27 10:52:25;;;;;;;5.60;4.23;;;10.50;96.90;;;;;;935102;151;27363;-79
2022/11/27 10:55:01;;;;;;;5.00;4.20;;;10.50;96.70;;;;;;936037;151;27480;-79
2022/11/27 10:57:46;;;;;;;5.13;4.67;;;10.50;96.70;;;;;;937760;151;28226;-78
2022/11/27 11:00:22;;;;;;;4.57;4.10;;;10.60;96.50;;;;;;935585;151;27795;-78
2022/11/27 11:02:48;;;;;;;4.90;4.40;;;10.60;96.30;;;;;;933590;151;27351;-79
2022/11/27 11:05:18;;;;;;;4.40;4.00;;;10.70;96.30;;;;;;934601;151;27431;-78
2022/11/27 11:07:44;;;;;;;5.63;4.43;;;10.70;96.30;;;;;;935802;151;27511;-79
2022/11/27 11:10:29;;;;;;;4.93;4.10;;;10.70;96.00;;;;;;934207;151;27363;-78
2022/11/27 11:13:10;;;;;;;5.27;3.83;;;10.80;96.20;;;;;;932968;151;27354;-79
2022/11/27 11:15:43;;;;;;;4.93;4.40;;;10.90;96.10;;;;;;935709;151;27279;-79
2022/11/27 11:18:10;;;;;;;4.03;3.60;;;10.90;96.00;;;;;;934299;151;27404;-79
2022/11/27 11:20:36;;;;;;;4.70;3.70;;;11.00;95.90;;;;;;932397;151;27383;-79
2022/11/27 11:23:03;;;;;;;4.77;3.40;;;11.10;95.70;;;;;;935506;151;27403;-78
2022/11/27 11:25:30;;;;;;;4.40;3.53;;;11.10;95.30;;;;;;933997;151;27386;-79
2022/11/27 11:27:56;;;;;;;3.60;3.20;;;11.20;95.00;;;;;;935723;151;27428;-79
2022/11/27 11:30:23;;;;;;;3.50;3.20;;;11.30;94.60;;;;;;934290;150;27485;-79
2022/11/27 11:32:49;;;;;;;3.60;3.27;;;11.30;94.40;;;;;;933588;151;27454;-79
2022/11/27 11:35:28;;;;;;;5.57;4.27;;;11.40;94.20;;;;;;934046;151;27427;-79
2022/11/27 11:37:55;;;;;;;4.00;3.60;;;11.50;94.10;;;;;;934255;151;27398;-79
2022/11/27 11:40:24;;;;;;;4.50;3.70;;;11.60;94.10;;;;;;933909;151;28144;-79
2022/11/27 11:42:59;;;;;;;3.60;3.30;;;11.60;94.00;;;;;;935153;151;27345;-79
2022/11/27 11:45:26;;;;;;;4.03;3.20;;;11.70;93.70;;;;;;936403;151;27424;-79
2022/11/27 11:47:53;;;;;;;5.60;3.50;;;11.80;93.30;;;;;;935222;151;27387;-79
2022/11/27 11:50:40;;;;;;;3.70;3.40;;;11.80;92.90;;;;;;935487;151;27460;-79
2022/11/27 11:53:22;;;;;;;3.20;3.00;;;11.90;92.60;;;;;;936261;151;27324;-78
2022/11/27 11:56:15;;;;;;;4.07;3.20;;;12.00;92.50;;;;;;935068;151;27429;-79
2022/11/27 11:58:44;;;;;;;3.20;2.90;;;12.00;92.10;;;;;;935024;151;27348;-78
2022/11/27 12:01:17;;;;;;;5.10;3.00;;;12.10;91.90;;;;;;934913;151;27796;-78
2022/11/27 12:03:44;;;;;;;4.40;3.30;;;12.00;91.70;;;;;;934811;151;27312;-78
2022/11/27 12:06:19;;;;;;;3.53;3.23;;;12.10;91.40;;;;;;937070;151;27303;-78
2022/11/27 12:08:49;;;;;;;3.73;3.40;;;12.10;91.10;;;;;;933273;151;27403;-78
2022/11/27 12:11:43;;;;;;;3.98;3.35;;;12.10;91.00;;;;;;935713;151;27379;-79
2022/11/27 12:14:31;;;;;;;3.47;3.17;;;12.10;90.70;;;;;;932875;151;27331;-78
2022/11/27 12:17:26;;;;;;;4.13;3.17;;;12.10;90.40;;;;;;936451;151;27291;-78
2022/11/27 12:20:04;;;;;;;3.30;2.97;;;12.00;90.10;;;;;;935421;151;27342;-78
2022/11/27 12:22:39;;;;;;;3.70;3.30;;;12.00;90.40;;;;;;912521;151;27394;-79
2022/11/27 12:25:19;;;;;;;3.47;3.13;;;12.00;90.40;;;;;;936373;151;27465;-78
2022/11/27 12:27:54;;;;;;;2.90;2.70;;;11.90;90.30;;;;;;933163;151;27476;-79
2022/11/27 12:33:04;;;;;;;2.97;2.67;;;12.00;90.50;;;;;;973748;144;36456;-79
2022/11/27 12:35:46;;;;;;;2.63;2.43;;;12.00;90.50;;;;;;960198;147;27440;-79
2022/11/27 12:38:15;;;;;;;3.00;2.70;;;12.10;90.60;;;;;;960701;147;27327;-78
2022/11/27 12:41:01;;;;;;;3.27;2.97;;;12.20;90.50;;;;;;960851;147;27766;-79
2022/11/27 12:43:27;;;;;;;2.83;2.63;;;12.20;90.50;;;;;;960678;147;27255;-79
2022/11/27 12:46:15;;;;;;;4.07;2.90;;;12.30;90.40;;;;;;960580;147;27367;-79
2022/11/27 12:48:56;;;;;;;4.70;3.17;;;12.30;90.20;;;;;;961440;147;27301;-78
2022/11/27 12:51:28;;;;;;;3.05;2.67;;;12.40;90.10;;;;;;954853;147;28591;-79
2022/11/27 12:54:04;;;;;;;2.90;2.70;;;12.40;89.90;;;;;;960849;147;27778;-80
2022/11/27 12:56:31;;;;;;;2.73;2.50;;;12.50;89.20;;;;;;959501;147;28091;-80
2022/11/27 12:59:15;;;;;;;3.05;2.85;;;12.50;88.90;;;;;;961976;147;27298;-79
2022/11/27 13:01:42;;;;;;;6.77;3.67;;;12.50;88.50;;;;;;929589;151;27376;-80
2022/11/27 13:04:35;;;;;;;3.60;2.70;;;12.50;88.10;;;;;;962137;147;27260;-80
2022/11/27 13:07:20;;;;;;;3.70;2.93;;;12.50;87.80;;;;;;960996;147;27289;-79